Time;durP1;ratioP1;P1;durP2;ratioP2;P2;SDS_P1;SDS_P2;PMS_P1;PMS_P2;Temp;Humidity;BMP_temperature;BMP_pressure;BME280_temperature;BME280_humidity;BME280_pressure;Samples;Min_cycle;Max_cycle;Signal;HPM_P1;HPM_P2
2022/01/27 00:05:21;;;;;;;17.13;13.35;;;;;;;18.51;41.76;102228.44;4951472;28;21309;-75
2022/01/27 00:10:57;;;;;;;16.15;14.40;;;;;;;18.54;41.66;102227.38;5053177;28;20493;-75
2022/01/27 00:13:32;;;;;;;15.82;14.07;;;;;;;18.55;41.59;102234.47;5053283;28;20067;-75
2022/01/27 00:16:25;;;;;;;15.80;14.15;;;;;;;18.56;41.68;102238.03;5053960;28;20064;-75
2022/01/27 00:18:51;;;;;;;16.90;14.23;;;;;;;18.57;41.45;102251.34;5115256;28;20054;-75
2022/01/27 00:21:22;;;;;;;15.95;14.25;;;;;;;18.58;41.34;102245.00;5114348;28;20044;-74
2022/01/27 00:23:50;;;;;;;15.25;12.98;;;;;;;18.60;41.46;102247.63;5115780;28;20521;-75
2022/01/27 00:26:18;;;;;;;16.60;14.80;;;;;;;18.60;41.60;102237.75;5112311;28;20040;-74
2022/01/27 00:28:47;;;;;;;16.35;13.40;;;;;;;18.62;41.39;102230.44;5011987;28;20053;-74
2022/01/27 00:31:17;;;;;;;18.10;14.63;;;;;;;18.64;41.49;102233.06;5011526;28;20414;-74
2022/01/27 00:33:46;;;;;;;16.30;14.52;;;;;;;18.64;41.33;102219.66;5011713;28;20049;-75
2022/01/27 00:36:13;;;;;;;19.05;14.88;;;;;;;18.65;41.17;102224.91;5011859;28;20057;-74
2022/01/27 00:38:41;;;;;;;16.58;14.15;;;;;;;18.66;40.94;102226.63;5011460;28;20054;-74
2022/01/27 00:41:13;;;;;;;15.93;14.07;;;;;;;18.67;41.22;102222.97;5012007;28;20046;-75
2022/01/27 00:43:43;;;;;;;15.18;13.57;;;;;;;18.69;41.02;102226.44;5012241;28;20053;-74
2022/01/27 00:46:15;;;;;;;16.00;14.30;;;;;;;18.69;41.24;102221.09;5011222;28;20431;-74
2022/01/27 00:48:45;;;;;;;16.42;14.73;;;;;;;18.70;41.02;102225.53;5011068;28;20049;-74
2022/01/27 00:51:21;;;;;;;16.35;13.77;;;;;;;18.73;41.00;102228.03;5011637;28;20038;-74
2022/01/27 00:56:57;;;;;;;19.05;15.57;;;;;;;18.73;41.06;102219.97;4972874;28;20153;-74
2022/01/27 01:02:30;;;;;;;;;;;;;;;18.76;40.76;102241.25;4990478;28;20058;-74
2022/01/27 01:04:50;;;;;;;16.77;14.95;;;;;;;18.76;41.02;102235.88;4989668;28;19922;-74
2022/01/27 01:07:19;;;;;;;17.23;15.25;;;;;;;18.77;40.92;102226.88;4989808;28;20059;-74
2022/01/27 01:15:20;;;;;;;16.60;14.80;;;;;;;18.78;40.80;102209.81;4989322;28;20073;-75
2022/01/27 01:31:46;;;;;;;16.83;14.68;;;;;;;18.84;40.90;102207.69;5068011;28;20531;-75
2022/01/27 01:34:25;;;;;;;17.08;14.00;;;;;;;18.84;40.77;102213.06;5099596;28;20100;-75
2022/01/27 01:36:57;;;;;;;16.25;13.93;;;;;;;18.84;40.75;102213.97;5114327;28;20047;-75
2022/01/27 01:39:27;;;;;;;16.83;14.77;;;;;;;18.83;40.99;102206.84;5113776;28;20068;-75
2022/01/27 01:41:55;;;;;;;16.25;14.23;;;;;;;18.86;40.72;102216.53;5113980;28;20432;-75
2022/01/27 01:44:24;;;;;;;17.05;14.70;;;;;;;18.85;40.83;102209.44;5113113;28;20048;-75
2022/01/27 01:46:53;;;;;;;16.48;14.70;;;;;;;18.85;40.82;102214.81;5114020;28;20047;-75
2022/01/27 01:49:23;;;;;;;15.75;13.57;;;;;;;18.86;40.84;102214.72;5016773;28;20050;-75
2022/01/27 01:51:50;;;;;;;18.48;14.95;;;;;;;18.85;40.87;102212.13;5011602;28;20038;-75
2022/01/27 01:54:17;;;;;;;15.73;14.20;;;;;;;18.85;40.75;102202.25;5010607;28;20401;-75
2022/01/27 01:56:45;;;;;;;15.95;12.68;;;;;;;18.85;40.85;102199.56;5010527;28;20046;-75
2022/01/27 01:59:13;;;;;;;17.98;15.25;;;;;;;18.86;40.83;102203.13;5008948;28;20468;-75
2022/01/27 02:01:41;;;;;;;17.15;14.45;;;;;;;18.86;40.74;102212.03;5010847;28;20038;-75
2022/01/27 02:04:10;;;;;;;17.00;14.52;;;;;;;18.87;40.55;102212.88;5010437;28;20049;-75
2022/01/27 02:06:48;;;;;;;17.25;15.13;;;;;;;18.87;40.77;102207.50;5074481;28;20050;-75
2022/01/27 02:20:07;;;;;;;16.38;14.30;;;;;;;18.87;40.75;102188.72;5113730;28;20036;-75
2022/01/27 02:22:35;;;;;;;16.98;14.88;;;;;;;18.87;40.80;102183.38;5113505;28;20050;-75
2022/01/27 02:25:04;;;;;;;16.58;14.15;;;;;;;18.86;40.76;102182.50;5113238;28;20044;-75
2022/01/27 02:27:32;;;;;;;17.05;14.70;;;;;;;18.88;40.73;102183.28;5057562;28;20042;-75
2022/01/27 02:29:59;;;;;;;15.13;13.52;;;;;;;18.87;40.75;102180.69;5010116;28;20409;-75
2022/01/27 02:32:27;;;;;;;16.25;14.55;;;;;;;18.87;40.71;102173.50;5009193;28;20393;-75
2022/01/27 02:34:54;;;;;;;18.00;14.15;;;;;;;18.87;40.75;102160.06;5013673;28;20401;-75
2022/01/27 02:37:21;;;;;;;15.48;13.85;;;;;;;18.87;40.69;102151.16;5012786;28;20054;-75
2022/01/27 02:39:49;;;;;;;17.88;14.75;;;;;;;18.86;40.97;102153.00;5013477;28;20045;-75
2022/01/27 02:42:32;;;;;;;17.35;15.10;;;;;;;18.87;40.70;102156.53;5013256;28;20412;-75
2022/01/27 02:45:03;;;;;;;16.67;14.82;;;;;;;18.87;40.82;102173.50;5013400;28;20050;-75
2022/01/27 02:47:30;;;;;;;17.52;15.55;;;;;;;18.87;40.66;102186.06;5013861;28;20046;-75
2022/01/27 02:49:58;;;;;;;16.98;15.20;;;;;;;18.87;40.72;102181.53;5012209;28;20041;-75
2022/01/27 02:52:25;;;;;;;17.20;15.13;;;;;;;18.88;40.81;102177.03;5013433;28;20501;-75
2022/01/27 02:54:53;;;;;;;16.65;14.63;;;;;;;18.87;40.74;102175.31;5013557;28;20485;-76
2022/01/27 02:57:23;;;;;;;16.83;14.63;;;;;;;18.86;40.75;102174.47;5013308;28;20053;-76
2022/01/27 02:59:51;;;;;;;16.75;14.88;;;;;;;18.87;40.92;102169.94;5013640;28;20046;-76
2022/01/27 03:02:20;;;;;;;17.02;14.68;;;;;;;18.86;40.95;102154.81;5013058;28;20057;-76
2022/01/27 03:04:47;;;;;;;16.92;14.90;;;;;;;18.86;40.81;102157.50;5012962;28;20060;-76
2022/01/27 03:07:15;;;;;;;16.48;13.98;;;;;;;18.85;41.09;102148.59;5013038;28;20059;-76
2022/01/27 03:09:43;;;;;;;16.88;15.13;;;;;;;18.84;41.09;102152.25;5013219;28;20046;-76
2022/01/27 03:12:11;;;;;;;16.02;14.07;;;;;;;18.85;41.02;102156.66;5011599;28;20054;-76
2022/01/27 03:14:41;;;;;;;17.20;15.18;;;;;;;18.83;41.01;102147.81;5013547;28;20061;-76
2022/01/27 03:17:10;;;;;;;16.33;14.52;;;;;;;18.84;41.13;102146.88;5011847;28;20045;-76
2022/01/27 03:19:38;;;;;;;16.65;14.90;;;;;;;18.83;41.07;102136.22;5012859;28;20041;-76
2022/01/27 03:22:06;;;;;;;17.30;14.38;;;;;;;18.83;41.10;102142.44;5012665;28;20420;-76
2022/01/27 03:24:35;;;;;;;18.67;15.23;;;;;;;18.83;41.12;102142.44;5012016;28;20379;-75
2022/01/27 03:27:07;;;;;;;18.25;15.27;;;;;;;18.83;41.11;102138.91;5037529;28;20049;-75
2022/01/27 03:29:34;;;;;;;17.33;14.63;;;;;;;18.83;41.10;102144.28;4993079;28;20050;-75
2022/01/27 03:32:02;;;;;;;18.52;14.98;;;;;;;18.83;41.28;102146.94;5126046;27;20040;-75
2022/01/27 03:34:29;;;;;;;18.58;15.52;;;;;;;18.83;41.06;102152.31;5116699;28;20067;-75
2022/01/27 03:36:56;;;;;;;16.25;14.55;;;;;;;18.83;41.32;102149.63;5115869;28;20051;-76
2022/01/27 03:39:25;;;;;;;17.23;14.95;;;;;;;18.83;41.25;102155.00;5116398;28;20058;-75
2022/01/27 03:41:56;;;;;;;17.88;15.32;;;;;;;18.82;41.15;102146.09;5116018;28;20394;-75
2022/01/27 03:44:24;;;;;;;17.50;14.40;;;;;;;18.83;41.16;102146.94;5115717;28;20399;-75
2022/01/27 03:46:53;;;;;;;17.77;14.40;;;;;;;18.83;41.20;102138.91;5116112;28;20055;-75
2022/01/27 03:49:21;;;;;;;16.27;14.60;;;;;;;18.83;40.95;102138.91;5105270;28;20044;-75
2022/01/27 03:51:48;;;;;;;18.83;15.40;;;;;;;18.82;41.13;102123.78;5011273;28;20486;-75
2022/01/27 03:54:17;;;;;;;19.15;15.63;;;;;;;18.82;41.29;102116.59;5012372;28;20481;-75
2022/01/27 03:56:44;;;;;;;16.98;14.88;;;;;;;18.83;40.92;102130.84;5012242;28;20057;-75
2022/01/27 03:59:12;;;;;;;16.48;14.23;;;;;;;18.83;41.01;102125.50;5010657;28;20054;-75
2022/01/27 04:01:39;;;;;;;16.17;14.43;;;;;;;18.82;40.81;102138.03;5012136;28;20046;-75
2022/01/27 04:04:07;;;;;;;19.88;15.40;;;;;;;18.82;40.92;102129.13;5012174;28;20053;-75
2022/01/27 04:06:40;;;;;;;17.92;16.05;;;;;;;18.82;40.97;102126.47;5027476;28;20051;-75
2022/01/27 04:09:09;;;;;;;18.80;15.43;;;;;;;18.83;40.83;102130.84;5115460;28;20052;-76
2022/01/27 04:11:39;;;;;;;16.50;13.98;;;;;;;18.82;40.99;102129.13;5114264;28;20050;-76
2022/01/27 04:14:08;;;;;;;17.25;14.70;;;;;;;18.82;40.91;102140.72;5114307;28;20055;-75
2022/01/27 04:16:36;;;;;;;17.17;14.45;;;;;;;18.82;41.07;102142.56;5114162;28;20043;-75
2022/01/27 04:19:03;;;;;;;15.57;13.70;;;;;;;18.82;40.79;102142.56;5115450;28;20148;-75
2022/01/27 04:21:31;;;;;;;17.23;14.25;;;;;;;18.82;40.84;102145.22;5115376;28;20047;-75
2022/01/27 04:23:58;;;;;;;17.00;14.43;;;;;;;18.82;40.84;102147.91;5114230;28;20046;-75
2022/01/27 04:26:38;;;;;;;20.20;15.15;;;;;;;18.81;40.98;102149.75;5106208;28;20048;-74
2022/01/27 04:29:06;;;;;;;16.83;14.27;;;;;;;18.81;40.93;102148.88;5012019;28;20057;-75
2022/01/27 04:31:34;;;;;;;17.60;14.95;;;;;;;18.80;41.07;102158.75;5011506;28;20057;-75
2022/01/27 04:34:01;;;;;;;16.33;14.63;;;;;;;18.81;41.17;102154.25;5012342;28;20480;-75
2022/01/27 04:36:34;;;;;;;18.55;15.55;;;;;;;18.81;41.11;102160.47;5011646;28;20374;-75
2022/01/27 04:39:17;;;;;;;;;;;;;;;18.81;41.22;102144.38;5010579;28;20060;-75
2022/01/27 04:44:26;;;;;;;16.42;14.63;;;;;;;18.80;41.02;102156.06;5012224;28;20048;-75
2022/01/27 04:49:21;;;;;;;15.52;13.85;;;;;;;18.78;41.24;102156.16;5011380;28;20050;-75
2022/01/27 04:51:49;;;;;;;16.23;14.02;;;;;;;18.80;41.04;102152.50;5010202;28;20049;-75
2022/01/27 04:54:29;;;;;;;19.13;14.80;;;;;;;18.80;41.30;102163.22;5009714;28;20053;-75
2022/01/27 04:57:01;;;;;;;18.83;14.48;;;;;;;18.78;41.26;102161.53;5010738;28;20481;-75
2022/01/27 04:59:34;;;;;;;19.48;15.70;;;;;;;18.79;41.22;102167.75;5010350;28;20042;-75
2022/01/27 05:02:06;;;;;;;17.60;14.35;;;;;;;18.78;41.24;102164.19;5011383;28;20057;-75
2022/01/27 05:04:40;;;;;;;16.55;14.68;;;;;;;18.78;41.19;102166.03;5011758;28;20053;-75
2022/01/27 05:07:08;;;;;;;16.90;14.95;;;;;;;18.78;41.26;102161.53;5011060;28;20053;-75
2022/01/27 05:09:36;;;;;;;17.10;14.95;;;;;;;18.79;41.23;102167.75;5011016;28;20038;-75
2022/01/27 05:12:15;;;;;;;18.45;15.10;;;;;;;18.77;41.40;102173.22;5011323;28;20065;-75
2022/01/27 05:14:42;;;;;;;18.27;14.10;;;;;;;18.78;41.25;102174.06;5011065;28;20049;-75
2022/01/27 05:17:10;;;;;;;18.17;15.18;;;;;;;18.80;41.30;102171.28;5011075;28;20054;-75
2022/01/27 05:19:37;;;;;;;19.88;14.45;;;;;;;18.80;41.14;102168.59;5011776;28;20481;-75
2022/01/27 05:22:04;;;;;;;22.52;15.13;;;;;;;18.80;41.15;102163.22;5011057;28;20053;-75
2022/01/27 05:24:32;;;;;;;20.48;14.75;;;;;;;18.78;41.14;102160.66;5011307;28;20057;-74
2022/01/27 05:26:59;;;;;;;16.50;14.63;;;;;;;18.77;41.31;102143.72;5004496;28;20051;-75
2022/01/27 05:29:26;;;;;;;15.90;14.15;;;;;;;18.78;41.23;102152.63;4991194;28;20057;-75
2022/01/27 05:31:54;;;;;;;16.27;14.57;;;;;;;18.78;41.10;102156.16;5059904;28;20043;-75
2022/01/27 05:34:21;;;;;;;18.90;15.07;;;;;;;18.78;41.16;102153.47;5113954;28;20044;-75
2022/01/27 05:36:48;;;;;;;19.35;15.38;;;;;;;18.78;41.27;102158.84;5113727;28;20475;-75
2022/01/27 05:39:16;;;;;;;18.27;14.45;;;;;;;18.78;41.19;102163.34;5113646;28;20048;-75
2022/01/27 05:41:43;;;;;;;16.38;14.60;;;;;;;18.79;41.19;102165.06;5114190;28;20483;-75
2022/01/27 05:44:12;;;;;;;17.73;14.35;;;;;;;18.79;41.41;102162.38;5113566;28;20506;-75
2022/01/27 05:46:40;;;;;;;15.85;13.93;;;;;;;18.77;41.30;102165.16;5113707;28;20062;-75
2022/01/27 05:49:07;;;;;;;17.05;14.73;;;;;;;18.77;41.38;102175.03;5096027;28;20051;-75
2022/01/27 05:51:35;;;;;;;18.10;15.20;;;;;;;18.75;41.15;102172.44;5093329;28;20045;-75
2022/01/27 05:54:04;;;;;;;20.65;15.73;;;;;;;18.75;41.40;102185.00;5009980;28;20401;-75
2022/01/27 05:56:31;;;;;;;19.27;15.45;;;;;;;18.74;41.26;102173.41;5010771;28;20050;-75
2022/01/27 05:58:58;;;;;;;19.52;14.57;;;;;;;18.74;41.27;102177.91;5010326;28;20045;-75
2022/01/27 06:01:26;;;;;;;19.23;14.98;;;;;;;18.74;41.24;102173.41;5010700;28;20046;-75
2022/01/27 06:03:54;;;;;;;18.65;14.80;;;;;;;18.73;41.28;102179.72;5010719;28;20049;-75
2022/01/27 06:06:22;;;;;;;19.48;14.30;;;;;;;18.72;41.31;102180.69;5008931;28;20053;-76
2022/01/27 06:08:49;;;;;;;19.35;14.82;;;;;;;18.72;41.33;102179.84;5104923;28;20521;-75
2022/01/27 06:11:17;;;;;;;20.92;16.10;;;;;;;18.71;41.29;102186.13;5112420;28;20506;-75
2022/01/27 06:13:44;;;;;;;19.65;15.43;;;;;;;18.71;41.37;102180.78;5113104;28;20063;-75
2022/01/27 06:16:12;;;;;;;21.77;15.40;;;;;;;18.71;41.29;102191.50;5112873;28;20056;-75
2022/01/27 06:18:40;;;;;;;22.33;17.08;;;;;;;18.73;41.35;102194.97;5113289;28;20050;-75
2022/01/27 06:21:09;;;;;;;19.38;15.55;;;;;;;18.70;41.33;102187.97;5112975;28;20050;-75
2022/01/27 06:23:37;;;;;;;20.98;15.20;;;;;;;18.71;41.38;102192.34;5113066;28;20040;-75
2022/01/27 06:26:04;;;;;;;20.42;16.05;;;;;;;18.72;41.35;102177.16;5111392;28;20055;-75
2022/01/27 06:28:31;;;;;;;20.00;15.52;;;;;;;18.72;41.26;102187.88;5014726;28;20054;-75
2022/01/27 06:30:59;;;;;;;21.02;15.10;;;;;;;18.73;41.42;102179.72;5009853;28;20050;-75
2022/01/27 06:33:26;;;;;;;20.83;15.82;;;;;;;18.73;41.38;102195.81;5009771;28;20497;-76
2022/01/27 06:35:54;;;;;;;18.20;16.05;;;;;;;18.73;41.35;102194.97;5008492;28;20504;-76
2022/01/27 06:38:21;;;;;;;20.30;16.40;;;;;;;18.73;41.13;102200.34;5009641;28;20076;-76
2022/01/27 06:40:48;;;;;;;18.40;14.80;;;;;;;18.74;41.18;102202.91;5008889;28;20053;-75
2022/01/27 06:43:19;;;;;;;20.85;15.88;;;;;;;18.73;41.10;102211.06;5010041;28;20069;-75
2022/01/27 06:45:46;;;;;;;19.80;15.77;;;;;;;18.72;41.30;102202.16;5010511;28;20082;-75
2022/01/27 06:48:13;;;;;;;22.63;16.05;;;;;;;18.73;41.47;102211.06;5009512;28;20050;-75
2022/01/27 06:50:41;;;;;;;20.75;15.98;;;;;;;18.71;41.42;102203.09;5008324;28;20053;-75
2022/01/27 06:53:09;;;;;;;20.40;15.30;;;;;;;18.72;41.27;102203.97;5009131;28;20048;-75
2022/01/27 06:55:38;;;;;;;20.67;16.30;;;;;;;18.71;41.29;102208.47;4997204;28;20050;-75
2022/01/27 06:58:05;;;;;;;21.20;17.45;;;;;;;18.71;41.36;102203.09;4990236;28;20481;-75
2022/01/27 07:00:33;;;;;;;19.63;14.60;;;;;;;18.72;41.26;102217.41;4990559;28;20051;-75
2022/01/27 07:03:00;;;;;;;19.77;16.27;;;;;;;18.73;41.31;102219.13;4989828;28;20058;-75
2022/01/27 07:05:31;;;;;;;19.50;15.85;;;;;;;18.73;41.19;102229.84;4990255;28;20065;-75
2022/01/27 07:07:59;;;;;;;19.95;15.50;;;;;;;18.73;41.33;102228.03;4990474;28;20081;-75
2022/01/27 07:10:27;;;;;;;22.90;15.88;;;;;;;18.73;41.18;102229.84;4990196;28;20513;-75
2022/01/27 07:12:55;;;;;;;19.98;16.45;;;;;;;18.73;41.21;102224.47;4989735;28;20038;-75
2022/01/27 07:15:22;;;;;;;18.77;15.48;;;;;;;18.72;41.22;102220.06;4989798;28;20061;-75
2022/01/27 07:17:50;;;;;;;20.50;15.38;;;;;;;18.71;41.08;102219.19;4990081;28;20050;-75
2022/01/27 07:20:18;;;;;;;20.33;15.73;;;;;;;18.71;41.06;102232.59;4993189;28;20061;-75
2022/01/27 07:22:45;;;;;;;18.77;14.73;;;;;;;18.70;41.20;102220.16;4993129;28;20478;-76
2022/01/27 07:25:13;;;;;;;19.67;15.43;;;;;;;18.70;41.35;102225.53;4992246;28;20397;-75
2022/01/27 07:27:40;;;;;;;20.60;15.23;;;;;;;18.70;41.22;102230.88;4993690;28;20050;-75
2022/01/27 07:30:08;;;;;;;20.88;15.25;;;;;;;18.70;41.35;102238.06;4993933;28;20050;-75
2022/01/27 07:32:37;;;;;;;21.17;16.35;;;;;;;18.66;41.61;102232.00;4993238;28;20046;-75
2022/01/27 07:35:05;;;;;;;23.50;16.30;;;;;;;18.65;41.47;102230.28;4993318;28;20049;-76
2022/01/27 07:37:32;;;;;;;22.30;15.50;;;;;;;18.64;41.32;102233.06;4991027;28;20059;-77
2022/01/27 07:40:00;;;;;;;20.80;14.50;;;;;;;18.65;41.43;102240.16;4992717;28;20050;-77
2022/01/27 07:42:27;;;;;;;20.15;15.38;;;;;;;18.64;41.07;102239.28;4993464;28;20043;-81
2022/01/27 07:45:01;;;;;;;17.92;14.20;;;;;;;18.66;41.12;102240.03;4993770;28;20053;-76
2022/01/27 07:47:31;;;;;;;22.13;14.50;;;;;;;18.66;41.13;102242.72;4993141;28;20065;-76
2022/01/27 07:49:59;;;;;;;21.13;15.15;;;;;;;18.66;41.29;102244.53;4992451;28;20046;-76
2022/01/27 07:52:26;;;;;;;21.00;15.77;;;;;;;18.65;41.34;102253.56;4992581;28;20050;-75
2022/01/27 07:54:54;;;;;;;19.33;14.85;;;;;;;18.64;41.42;102246.47;4992783;28;20050;-76
2022/01/27 07:57:21;;;;;;;22.50;15.25;;;;;;;18.64;41.68;102249.16;4992683;28;20052;-76
2022/01/27 07:59:48;;;;;;;18.20;14.57;;;;;;;18.61;41.46;102255.56;4991323;28;20054;-76
2022/01/27 08:02:16;;;;;;;18.50;14.95;;;;;;;18.60;41.60;102255.66;4991618;28;20050;-76
2022/01/27 08:04:45;;;;;;;20.08;15.05;;;;;;;18.57;42.58;102264.75;4990879;28;20050;-75
2022/01/27 08:07:13;;;;;;;21.55;13.98;;;;;;;18.53;42.93;102260.53;4992907;28;20046;-75
2022/01/27 08:09:41;;;;;;;22.10;14.20;;;;;;;18.50;42.79;102260.69;5055974;28;20391;-75
2022/01/27 08:12:10;;;;;;;19.40;15.00;;;;;;;18.48;42.75;102263.47;5115826;28;20051;-76
2022/01/27 08:14:37;;;;;;;19.90;15.55;;;;;;;18.47;42.54;102263.56;5115490;28;20040;-75
2022/01/27 08:17:05;;;;;;;19.15;15.27;;;;;;;18.47;42.34;102263.56;5114108;28;20047;-75
2022/01/27 08:19:34;;;;;;;21.60;16.17;;;;;;;18.45;42.37;102266.34;5115720;28;20051;-75
2022/01/27 08:22:04;;;;;;;20.52;16.13;;;;;;;18.44;42.21;102269.13;5115775;28;20047;-75
2022/01/27 08:24:31;;;;;;;20.08;15.00;;;;;;;18.44;42.22;102269.97;5115372;28;20103;-76
2022/01/27 08:27:03;;;;;;;22.35;15.40;;;;;;;18.44;42.28;102269.13;5116251;28;20044;-75
2022/01/27 08:29:53;;;;;;;21.05;16.05;;;;;;;18.43;42.11;102276.31;5114930;28;20383;-75
2022/01/27 08:32:30;;;;;;;24.48;16.35;;;;;;;18.44;42.07;102285.22;5113527;28;20160;-75
2022/01/27 08:34:58;;;;;;;20.88;15.68;;;;;;;18.43;42.10;102273.63;5115888;28;20043;-75
2022/01/27 08:37:25;;;;;;;21.10;15.32;;;;;;;18.43;42.00;102284.34;5115397;28;20044;-76
2022/01/27 08:39:53;;;;;;;18.35;14.85;;;;;;;18.43;41.75;102286.13;5115475;28;20043;-75
2022/01/27 08:42:20;;;;;;;21.75;15.32;;;;;;;18.42;41.96;102282.59;5115179;28;20074;-75
2022/01/27 08:44:48;;;;;;;21.63;16.02;;;;;;;18.43;41.94;102283.47;5115106;28;20043;-75
2022/01/27 08:47:16;;;;;;;19.67;15.05;;;;;;;18.42;41.87;102287.97;5114181;28;20048;-75
2022/01/27 08:49:47;;;;;;;19.70;15.10;;;;;;;18.43;41.81;102288.81;5115291;28;20047;-75
2022/01/27 08:52:17;;;;;;;20.55;14.13;;;;;;;18.42;41.78;102287.09;5115023;28;20411;-75
2022/01/27 08:54:45;;;;;;;21.13;14.68;;;;;;;18.42;41.59;102295.16;5114863;28;20039;-75
2022/01/27 08:57:12;;;;;;;23.73;16.95;;;;;;;18.41;41.05;102291.59;5115422;28;20039;-75
2022/01/27 08:59:40;;;;;;;22.48;17.02;;;;;;;18.41;41.22;102296.97;5114888;28;20055;-75
2022/01/27 09:02:07;;;;;;;24.23;17.50;;;;;;;18.40;41.35;102303.28;5115393;28;20048;-75
2022/01/27 09:04:35;;;;;;;23.38;17.17;;;;;;;18.40;41.26;102305.97;5114673;28;20040;-76
2022/01/27 09:07:03;;;;;;;20.83;15.68;;;;;;;18.40;41.26;102316.69;5113398;28;20051;-75
2022/01/27 09:09:30;;;;;;;21.92;14.90;;;;;;;18.42;41.25;102305.88;5115020;28;20044;-75
2022/01/27 09:11:59;;;;;;;22.27;15.90;;;;;;;18.40;40.83;102311.34;5114783;28;20047;-75
2022/01/27 09:14:31;;;;;;;21.83;15.70;;;;;;;18.42;41.11;102314.78;5114417;28;20090;-75
2022/01/27 09:16:59;;;;;;;21.63;16.27;;;;;;;18.42;41.14;102316.59;5114053;28;20044;-75
2022/01/27 09:19:28;;;;;;;21.75;15.73;;;;;;;18.40;41.14;102315.84;5113492;28;20058;-76
2022/01/27 09:21:56;;;;;;;24.48;15.75;;;;;;;18.40;41.23;102305.13;5114632;28;20391;-76
2022/01/27 09:24:28;;;;;;;22.15;15.85;;;;;;;18.39;41.19;102314.97;5114505;28;20054;-76
2022/01/27 09:27:01;;;;;;;21.98;16.25;;;;;;;18.39;41.24;102316.78;5113004;28;20048;-75
2022/01/27 09:29:28;;;;;;;23.13;15.93;;;;;;;18.39;41.15;102314.09;5114802;28;20047;-75
2022/01/27 09:31:58;;;;;;;24.10;15.73;;;;;;;18.38;41.17;102323.09;5114284;28;20699;-75
2022/01/27 09:34:26;;;;;;;21.17;15.65;;;;;;;18.38;41.13;102318.59;5113946;28;20047;-75
2022/01/27 09:36:54;;;;;;;22.45;16.60;;;;;;;18.38;41.06;102315.06;5114157;28;20047;-76
2022/01/27 09:39:23;;;;;;;23.48;17.02;;;;;;;18.36;41.03;102319.66;5095941;28;20052;-76
2022/01/27 09:41:54;;;;;;;26.83;17.58;;;;;;;18.34;40.75;102310.81;5112324;28;20077;-76
2022/01/27 09:44:28;;;;;;;22.55;17.30;;;;;;;18.33;40.75;102306.41;5114031;28;20048;-75
2022/01/27 09:46:57;;;;;;;;;;;;;;;18.33;40.75;102314.47;5114853;28;20047;-75
2022/01/27 09:49:36;;;;;;;29.58;18.50;;;;;;;18.31;40.48;102306.53;5113922;28;19927;-76
2022/01/27 09:52:05;;;;;;;25.77;18.45;;;;;;;18.29;40.73;102301.22;5112914;28;20043;-76
2022/01/27 09:54:34;;;;;;;26.85;18.42;;;;;;;18.28;40.49;102304.88;5112649;28;20058;-76
2022/01/27 09:57:03;;;;;;;26.45;18.27;;;;;;;18.27;40.44;102299.56;5114746;28;20043;-76
2022/01/27 09:59:31;;;;;;;28.38;19.40;;;;;;;18.25;40.32;102294.31;5114615;28;20039;-76
2022/01/27 10:02:03;;;;;;;28.52;19.92;;;;;;;18.24;40.36;102297.97;5114518;28;20054;-75
2022/01/27 10:04:42;;;;;;;26.52;19.25;;;;;;;18.24;40.21;102300.63;5112963;28;20043;-75
2022/01/27 10:07:11;;;;;;;28.90;20.55;;;;;;;18.23;39.86;102285.53;5113896;28;20051;-76
2022/01/27 10:09:39;;;;;;;29.48;20.55;;;;;;;18.21;40.08;102276.69;5112497;28;20051;-76
2022/01/27 10:12:07;;;;;;;31.23;21.05;;;;;;;18.21;40.10;102279.38;5113597;28;20055;-76
2022/01/27 10:14:38;;;;;;;30.58;19.38;;;;;;;18.20;40.17;102288.38;5112192;28;20410;-76
2022/01/27 10:17:12;;;;;;;31.58;20.90;;;;;;;18.19;39.93;102270.56;5112896;28;20149;-76
2022/01/27 10:19:40;;;;;;;31.50;21.42;;;;;;;18.19;39.83;102265.22;5113546;28;20046;-76
2022/01/27 10:22:13;;;;;;;29.90;20.15;;;;;;;18.21;40.01;102260.59;5112447;28;20403;-76
2022/01/27 10:24:40;;;;;;;;;;;;;;;18.22;40.03;102261.47;5113924;28;20052;-76
2022/01/27 10:32:45;;;;;;;29.88;20.10;;;;;;;18.25;39.98;102261.28;5113227;28;20095;-77
2022/01/27 10:35:16;;;;;;;28.85;20.20;;;;;;;18.25;39.95;102266.66;5113601;28;20050;-76
2022/01/27 10:38:02;;;;;;;26.55;18.70;;;;;;;18.25;40.03;102261.28;5113346;28;20055;-76
2022/01/27 10:40:35;;;;;;;30.92;20.33;;;;;;;18.24;40.09;102252.38;5111984;28;20050;-76
2022/01/27 10:43:12;;;;;;;29.50;18.83;;;;;;;18.25;40.04;102253.25;5112975;28;20039;-75
2022/01/27 10:46:12;;;;;;;25.13;19.05;;;;;;;18.25;40.02;102242.53;5113120;28;20036;-76
2022/01/27 10:48:48;;;;;;;36.20;24.00;;;;;;;18.24;41.84;102236.31;5111191;28;20392;-78
2022/01/27 10:51:23;;;;;;;40.15;25.85;;;;;;;18.25;42.47;102242.53;5094499;28;20058;-76
2022/01/27 10:53:57;;;;;;;36.05;23.17;;;;;;;18.25;42.97;102242.53;5114018;28;20517;-76
2022/01/27 10:56:30;;;;;;;32.05;23.05;;;;;;;18.25;42.85;102229.13;5116958;28;20487;-76
2022/01/27 10:58:59;;;;;;;30.70;21.40;;;;;;;18.25;42.67;102235.34;5116815;28;20043;-76
2022/01/27 11:01:36;;;;;;;30.00;20.95;;;;;;;18.25;42.43;102231.81;5115271;28;20052;-76
2022/01/27 11:04:07;;;;;;;29.20;21.38;;;;;;;18.26;42.22;102228.16;5063460;28;20057;-76
2022/01/27 11:06:36;;;;;;;31.35;20.50;;;;;;;18.26;42.03;102230.84;5001712;28;20145;-76
2022/01/27 11:09:10;;;;;;;31.95;21.48;;;;;;;18.25;41.84;102229.97;4993432;28;20521;-76
2022/01/27 11:11:40;;;;;;;29.60;20.95;;;;;;;18.26;41.74;102220.13;4992166;28;20061;-76
2022/01/27 11:14:08;;;;;;;35.47;24.73;;;;;;;18.20;41.11;102210.63;4993663;28;20050;-76
2022/01/27 11:16:41;;;;;;;32.63;22.67;;;;;;;18.19;41.45;102218.75;4993384;28;20045;-76
2022/01/27 11:19:52;;;;;;;;;;;;;;;18.19;41.53;102216.97;4993989;28;20050;-76
2022/01/27 11:27:53;;;;;;;27.30;20.67;;;;;;;18.26;41.40;102212.06;4993051;28;20042;-76
2022/01/27 11:30:59;;;;;;;30.67;20.88;;;;;;;18.27;40.97;102212.00;4993305;28;20050;-76
2022/01/27 11:33:35;;;;;;;30.90;21.67;;;;;;;18.27;40.91;102205.75;4993364;28;20038;-76
2022/01/27 11:36:10;;;;;;;28.23;20.13;;;;;;;18.27;40.86;102203.97;4992014;28;20046;-76
2022/01/27 11:38:39;;;;;;;29.33;20.92;;;;;;;18.28;40.96;102200.31;4992788;28;20058;-76
2022/01/27 11:41:26;;;;;;;29.40;20.63;;;;;;;18.27;40.65;102209.31;4992921;28;20043;-76
2022/01/27 11:44:19;;;;;;;28.77;20.85;;;;;;;18.29;40.66;102206.53;4993157;28;20053;-76
2022/01/27 11:49:46;;;;;;;28.70;20.63;;;;;;;18.27;40.59;102185.19;4992954;28;20046;-76
2022/01/27 11:52:28;;;;;;;27.42;19.88;;;;;;;18.28;40.70;102192.28;4992708;28;20051;-76
2022/01/27 11:55:16;;;;;;;30.50;20.77;;;;;;;18.28;40.72;102183.38;4992519;28;20038;-76
2022/01/27 11:57:45;;;;;;;28.35;20.80;;;;;;;18.28;40.74;102178.00;4991342;28;20046;-76
2022/01/27 12:00:19;;;;;;;29.70;21.42;;;;;;;18.29;40.63;102180.59;4992820;28;20049;-76
2022/01/27 12:03:01;;;;;;;;;;;;;;;18.27;40.68;102169.13;4993298;28;20042;-76
2022/01/27 12:05:31;;;;;;;26.17;19.63;;;;;;;18.27;40.72;102169.13;4993240;28;19921;-76
2022/01/27 12:08:13;;;;;;;28.40;20.15;;;;;;;18.27;40.59;102163.75;4992586;28;20065;-76
2022/01/27 12:10:49;;;;;;;30.50;22.55;;;;;;;18.26;40.64;102156.63;4992386;28;20050;-76
2022/01/27 12:19:00;;;;;;;28.60;20.27;;;;;;;18.27;40.77;102141.41;4992537;28;20504;-76
2022/01/27 12:21:35;;;;;;;27.20;19.70;;;;;;;18.26;40.84;102143.22;4992349;28;20061;-76
2022/01/27 12:24:29;;;;;;;26.02;19.27;;;;;;;18.22;40.97;102136.34;5007442;28;20077;-79
2022/01/27 12:27:07;;;;;;;25.83;20.05;;;;;;;18.22;40.80;102135.47;4993374;28;20065;-76
2022/01/27 12:29:51;;;;;;;26.98;19.67;;;;;;;18.23;40.74;102124.69;4992440;28;20046;-76
2022/01/27 12:32:21;;;;;;;29.77;20.65;;;;;;;18.24;40.72;102122.84;4991421;28;20061;-76
2022/01/27 12:34:56;;;;;;;26.98;21.13;;;;;;;18.24;40.57;102113.00;4992337;28;20535;-76